createdAt,value
2024-03-16T00:03:47.720Z,87.51
2024-03-16T00:08:56.509Z,87.30
2024-03-16T00:14:01.731Z,86.05
2024-03-16T00:19:05.109Z,85.98
2024-03-16T00:24:11.280Z,87.11
2024-03-16T00:29:17.214Z,87.16
2024-03-16T00:34:23.774Z,85.88
2024-03-16T00:39:29.952Z,86.71
2024-03-16T00:44:32.961Z,86.74
2024-03-16T00:49:37.579Z,87.14
2024-03-16T00:54:43.112Z,88.35
2024-03-16T00:59:48.205Z,87.92
2024-03-16T01:04:51.226Z,88.28
2024-03-16T01:09:59.556Z,87.77
2024-03-16T01:15:02.923Z,87.83
2024-03-16T01:20:08.471Z,88.16
2024-03-16T01:25:12.310Z,88.19
2024-03-16T01:30:16.816Z,88.89
2024-03-16T01:35:25.511Z,88.94
2024-03-16T01:40:29.025Z,88.83
2024-03-16T01:45:34.721Z,88.17
2024-03-16T01:50:39.387Z,88.89
2024-03-16T01:55:42.563Z,89.18
2024-03-16T02:00:49.065Z,88.59
2024-03-16T02:05:52.646Z,89.13
2024-03-16T02:10:57.972Z,88.90
2024-03-16T02:16:03.021Z,88.41
2024-03-16T02:21:12.884Z,89.00
2024-03-16T02:26:16.463Z,89.46
2024-03-16T02:31:21.344Z,89.71
2024-03-16T02:36:24.374Z,90.17
2024-03-16T02:41:27.369Z,90.75
2024-03-16T02:46:33.729Z,91.19
2024-03-16T02:51:36.807Z,91.86
2024-03-16T03:01:58.719Z,91.64
2024-03-16T03:07:05.569Z,91.56
2024-03-16T03:12:11.343Z,91.20
2024-03-16T03:17:15.637Z,91.87
2024-03-16T03:22:19.736Z,91.53
2024-03-16T03:27:24.696Z,92.05
2024-03-16T03:32:30.537Z,91.59
2024-03-16T03:37:38.875Z,91.41
2024-03-16T03:42:49.265Z,90.54
2024-03-16T03:48:02.804Z,90.78
2024-03-16T03:53:06.930Z,91.05
2024-03-16T03:58:11.635Z,91.10
2024-03-16T04:03:18.249Z,90.79
2024-03-16T04:08:23.730Z,90.48
2024-03-16T04:13:29.430Z,91.10
2024-03-16T04:18:37.654Z,91.11
2024-03-16T04:23:40.468Z,90.11
2024-03-16T04:28:46.176Z,90.86
2024-03-16T04:33:49.241Z,91.55
2024-03-16T04:38:55.417Z,91.77
2024-03-16T04:43:58.265Z,91.87
2024-03-16T04:49:01.495Z,92.14
2024-03-16T04:54:07.555Z,92.10
2024-03-16T04:59:12.798Z,91.51
2024-03-16T05:04:15.525Z,91.30
2024-03-16T05:09:18.959Z,91.82
2024-03-16T05:14:29.001Z,91.27
2024-03-16T05:19:35.796Z,91.92
2024-03-16T05:24:38.781Z,91.65
2024-03-16T05:29:45.395Z,91.32
2024-03-16T05:34:49.786Z,92.86
2024-03-16T05:39:55.756Z,93.06
2024-03-16T05:45:02.062Z,93.25
2024-03-16T05:50:08.548Z,93.26
2024-03-16T05:55:13.642Z,92.68
2024-03-16T06:00:20.945Z,93.42
2024-03-16T06:05:25.594Z,93.46
2024-03-16T06:10:29.502Z,93.64
2024-03-16T06:15:32.290Z,92.97
2024-03-16T06:20:35.165Z,92.87
2024-03-16T06:25:50.051Z,93.32
2024-03-16T06:31:01.290Z,92.85
2024-03-16T06:36:05.605Z,92.60
2024-03-16T06:41:10.918Z,90.55
2024-03-16T06:46:14.872Z,92.16
2024-03-16T06:51:20.701Z,92.00
2024-03-16T06:56:27.017Z,93.24
2024-03-16T07:01:32.460Z,93.69
2024-03-16T07:06:35.775Z,92.15
2024-03-16T07:11:48.278Z,89.80
2024-03-16T07:16:54.144Z,91.32
2024-03-16T07:22:00.578Z,91.45
2024-03-16T07:27:03.527Z,93.30
2024-03-16T07:32:07.029Z,93.63
2024-03-16T07:37:10.058Z,92.60
2024-03-16T07:42:12.868Z,94.03
2024-03-16T07:47:15.590Z,94.26
2024-03-16T07:52:18.921Z,89.47
2024-03-16T07:57:25.552Z,86.69
2024-03-16T08:02:30.657Z,88.13
2024-03-16T08:07:34.231Z,90.12
2024-03-16T08:12:39.470Z,90.20
2024-03-16T08:17:42.329Z,90.62
2024-03-16T08:22:57.548Z,90.11
2024-03-16T08:28:03.682Z,89.70
2024-03-16T08:33:07.465Z,89.64
2024-03-16T08:38:13.122Z,89.22
2024-03-16T08:43:18.773Z,88.69
2024-03-16T08:48:24.508Z,89.67
2024-03-16T08:53:34.975Z,90.26
2024-03-16T08:58:37.819Z,90.27
2024-03-16T09:03:40.641Z,90.54
2024-03-16T09:08:43.759Z,91.64
2024-03-16T09:13:47.504Z,92.52
2024-03-16T09:18:54.544Z,93.12
2024-03-16T09:23:57.478Z,94.17
2024-03-16T09:29:00.474Z,96.62
2024-03-16T09:34:06.348Z,91.95
2024-03-16T09:39:13.792Z,86.52
2024-03-16T09:44:21.427Z,81.52
2024-03-16T09:49:27.442Z,79.26
2024-03-16T09:54:33.990Z,71.84
2024-03-16T09:59:37.221Z,70.96
2024-03-16T10:04:42.091Z,75.19
2024-03-16T10:09:57.516Z,75.93
2024-03-16T10:15:20.949Z,73.34
2024-03-16T10:20:27.429Z,71.56
2024-03-16T10:25:37.669Z,71.17
2024-03-16T10:30:44.792Z,71.85
2024-03-16T10:35:50.575Z,75.25
2024-03-16T10:41:06.033Z,75.72
2024-03-16T10:46:16.722Z,73.21
2024-03-16T10:51:25.331Z,68.15
2024-03-16T10:56:33.648Z,71.52
2024-03-16T11:01:42.770Z,71.16
2024-03-16T11:06:45.477Z,70.65
2024-03-16T11:11:51.316Z,73.32
2024-03-16T11:16:54.262Z,75.23
2024-03-16T11:22:02.701Z,71.82
2024-03-16T11:27:12.364Z,70.38
2024-03-16T11:32:16.112Z,73.53
2024-03-16T11:37:18.801Z,71.92
2024-03-16T11:42:21.873Z,73.44
2024-03-16T11:47:26.957Z,73.73
2024-03-16T11:52:31.241Z,71.31
2024-03-16T11:57:37.380Z,71.25
2024-03-16T12:02:50.823Z,70.27
2024-03-16T12:07:55.760Z,68.24
2024-03-16T12:12:58.981Z,66.29
2024-03-16T12:18:09.349Z,65.06
2024-03-16T12:23:20.339Z,63.98
2024-03-16T12:28:36.608Z,64.22
2024-03-16T12:33:44.444Z,65.34
2024-03-16T12:38:49.961Z,66.12
2024-03-16T12:43:52.561Z,64.07
2024-03-16T12:48:57.795Z,62.82
2024-03-16T12:54:10.937Z,63.31
2024-03-16T12:59:16.683Z,61.93
2024-03-16T13:04:22.144Z,61.76
2024-03-16T13:09:27.893Z,61.34
2024-03-16T13:14:30.748Z,61.36
2024-03-16T13:19:35.286Z,60.97
2024-03-16T13:24:40.153Z,61.51
2024-03-16T13:29:48.271Z,65.79
2024-03-16T13:34:57.245Z,61.68
2024-03-16T13:40:00.800Z,58.95
2024-03-16T13:45:06.186Z,62.58
2024-03-16T13:50:15.480Z,64.32
2024-03-16T13:55:24.030Z,65.57
2024-03-16T14:00:33.182Z,64.69
2024-03-16T14:05:41.827Z,65.24
2024-03-16T14:10:44.855Z,65.93
2024-03-16T14:15:49.546Z,65.35
2024-03-16T14:20:55.909Z,66.24
2024-03-16T14:26:01.333Z,67.15
2024-03-16T14:31:04.942Z,66.56
2024-03-16T14:36:08.354Z,65.91
2024-03-16T14:41:14.647Z,65.33
2024-03-16T14:46:17.792Z,64.58
2024-03-16T14:51:24.399Z,64.00
2024-03-16T14:56:31.504Z,63.97
2024-03-16T15:01:36.689Z,63.26
2024-03-16T15:06:39.923Z,64.71
2024-03-16T15:11:42.749Z,63.76
2024-03-16T15:16:45.626Z,63.06
2024-03-16T15:21:55.246Z,64.20
2024-03-16T15:27:08.119Z,65.02
2024-03-16T15:32:14.008Z,66.22
2024-03-16T15:37:18.182Z,66.74
2024-03-16T15:42:22.588Z,67.35
2024-03-16T15:47:25.749Z,68.21
2024-03-16T15:52:28.331Z,68.71
2024-03-16T15:57:34.318Z,69.17
2024-03-16T16:02:39.211Z,69.66
2024-03-16T16:07:43.063Z,70.29
2024-03-16T16:12:52.230Z,71.13
2024-03-16T16:17:55.087Z,71.02
2024-03-16T16:22:58.327Z,70.86
2024-03-16T16:28:01.729Z,70.82
2024-03-16T16:33:10.132Z,70.94
2024-03-16T16:38:12.947Z,70.88
2024-03-16T16:43:17.669Z,71.03
2024-03-16T16:48:24.946Z,71.09
2024-03-16T16:53:35.556Z,71.02
2024-03-16T16:58:38.266Z,70.98
2024-03-16T17:03:43.361Z,71.23
2024-03-16T17:08:55.049Z,71.51
2024-03-16T17:14:03.035Z,71.52
2024-03-16T17:19:05.742Z,71.53
2024-03-16T17:24:11.588Z,71.46
2024-03-16T17:29:14.307Z,71.69
2024-03-16T17:34:22.744Z,71.66
2024-03-16T17:39:27.897Z,71.47
2024-03-16T17:44:35.668Z,71.55
2024-03-16T17:49:40.070Z,71.13
2024-03-16T17:54:46.902Z,70.00
2024-03-16T17:59:49.585Z,69.12
2024-03-16T18:04:53.115Z,69.83
2024-03-16T18:09:55.877Z,70.88
2024-03-16T18:14:58.548Z,72.00
2024-03-16T18:20:01.270Z,73.17
2024-03-16T18:25:08.340Z,74.27
2024-03-16T18:30:15.940Z,73.42
2024-03-16T18:35:25.074Z,74.25
2024-03-16T18:40:29.254Z,74.65
2024-03-16T18:45:38.549Z,75.24
2024-03-16T18:50:41.214Z,75.67
2024-03-16T18:55:45.292Z,75.76
2024-03-16T19:00:52.344Z,75.83
2024-03-16T19:05:55.214Z,76.82
2024-03-16T19:10:58.244Z,77.01
2024-03-16T19:16:01.302Z,75.89
2024-03-16T19:21:04.211Z,75.81
2024-03-16T19:26:07.942Z,75.20
2024-03-16T19:31:10.702Z,73.89
2024-03-16T19:36:16.509Z,73.97
2024-03-16T19:41:23.644Z,74.11
2024-03-16T19:46:31.701Z,74.31
2024-03-16T19:51:36.680Z,74.44
2024-03-16T19:56:41.965Z,74.16
2024-03-16T20:01:48.734Z,73.59
2024-03-16T20:06:55.973Z,72.24
2024-03-16T20:12:00.011Z,72.11
2024-03-16T20:17:12.110Z,72.20
2024-03-16T20:22:15.105Z,72.50
2024-03-16T20:27:20.734Z,72.26
2024-03-16T20:32:24.555Z,71.72
2024-03-16T20:37:35.105Z,71.87
2024-03-16T20:42:40.187Z,72.00
2024-03-16T20:47:43.984Z,72.30
2024-03-16T20:52:47.578Z,72.37
2024-03-16T20:57:56.413Z,72.20
2024-03-16T21:03:02.704Z,72.33
2024-03-16T21:08:06.332Z,72.61
2024-03-16T21:13:09.475Z,72.78
2024-03-16T21:18:13.278Z,72.67
2024-03-16T21:23:16.432Z,72.73
2024-03-16T21:28:24.102Z,72.56
2024-03-16T21:33:34.364Z,72.91
2024-03-16T21:38:37.323Z,73.23
2024-03-16T21:43:40.151Z,73.29
2024-03-16T21:48:46.231Z,73.04
2024-03-16T21:53:53.960Z,73.08
2024-03-16T21:59:03.174Z,73.31
2024-03-16T22:04:06.406Z,73.37
2024-03-16T22:09:10.473Z,73.54
2024-03-16T22:14:15.613Z,73.29
2024-03-16T22:19:18.305Z,73.47
2024-03-16T22:24:21.070Z,73.54
2024-03-16T22:29:26.901Z,73.80
2024-03-16T22:34:29.676Z,74.15
2024-03-16T22:39:32.463Z,74.23
2024-03-16T22:44:35.516Z,74.52
2024-03-16T22:49:41.568Z,73.80
2024-03-16T22:54:45.197Z,74.28
2024-03-16T22:59:50.085Z,74.65
2024-03-16T23:04:55.684Z,74.66
2024-03-16T23:10:00.577Z,74.34
2024-03-16T23:15:09.713Z,74.16
2024-03-16T23:20:24.055Z,74.61
2024-03-16T23:25:29.618Z,74.50
2024-03-16T23:30:34.459Z,74.57
2024-03-16T23:35:40.139Z,74.69
2024-03-16T23:40:43.366Z,74.80
2024-03-16T23:45:46.085Z,74.42
2024-03-16T23:50:49.197Z,74.31
2024-03-16T23:55:52.236Z,74.38
